createdAt,value
2019-03-17T00:00:43.051Z,99858.95
2019-03-17T00:03:13.562Z,99852.91
2019-03-17T00:05:44.109Z,99849.15
2019-03-17T00:08:14.611Z,99837.41
2019-03-17T00:10:45.073Z,99833.31
2019-03-17T00:13:17.853Z,99832.08
2019-03-17T00:15:48.427Z,99827.27
2019-03-17T00:18:18.959Z,99823.81
2019-03-17T00:20:49.437Z,99822.17
2019-03-17T00:23:19.878Z,99818.79
2019-03-17T00:25:50.449Z,99821.88
2019-03-17T00:28:20.897Z,99817.97
2019-03-17T00:30:51.539Z,99814.05
2019-03-17T00:33:22.060Z,99818.00
2019-03-17T00:35:52.606Z,99824.94
2019-03-17T00:38:23.047Z,99817.11
2019-03-17T00:40:53.692Z,99813.65
2019-03-17T00:43:24.138Z,99811.34
2019-03-17T00:45:54.697Z,99816.19
2019-03-17T00:48:25.141Z,99811.45
2019-03-17T00:50:55.705Z,99811.45
2019-03-17T00:53:26.297Z,99804.86
2019-03-17T00:55:57.561Z,99804.86
2019-03-17T00:58:29.165Z,99798.23
2019-03-17T01:00:59.655Z,99796.96
2019-03-17T01:03:30.173Z,99799.27
2019-03-17T01:06:00.939Z,99793.05
2019-03-17T01:08:31.407Z,99793.61
2019-03-17T01:11:01.954Z,99788.02
2019-03-17T01:13:32.488Z,99793.72
2019-03-17T01:16:02.954Z,99795.06
2019-03-17T01:18:34.342Z,99797.63
2019-03-17T01:21:04.811Z,99790.48
2019-03-17T01:23:35.281Z,99791.93
2019-03-17T01:26:05.957Z,99785.11
2019-03-17T01:28:36.489Z,99787.16
2019-03-17T01:31:06.970Z,99778.52
2019-03-17T01:33:37.501Z,99773.30
2019-03-17T01:36:08.144Z,99775.16
2019-03-17T01:38:38.667Z,99773.34
2019-03-17T01:41:09.144Z,99764.69
2019-03-17T01:43:39.592Z,99764.22
2019-03-17T01:46:10.061Z,99755.56
2019-03-17T01:48:40.509Z,99754.16
2019-03-17T01:51:10.964Z,99750.25
2019-03-17T01:53:41.549Z,99755.05
2019-03-17T01:56:12.016Z,99749.83
2019-03-17T01:58:42.531Z,99747.12
2019-03-17T02:01:13.037Z,99747.19
2019-03-17T02:03:43.550Z,99752.78
2019-03-17T02:06:14.079Z,99752.37
2019-03-17T02:08:44.584Z,99753.70
2019-03-17T02:11:15.174Z,99755.53
2019-03-17T02:13:45.663Z,99754.67
2019-03-17T02:16:16.211Z,99760.78
2019-03-17T02:18:48.280Z,99763.05
2019-03-17T02:21:18.818Z,99759.03
2019-03-17T02:23:49.253Z,99756.42
2019-03-17T02:26:19.876Z,99750.45
2019-03-17T02:28:50.367Z,99742.08
2019-03-17T02:31:20.976Z,99736.48
2019-03-17T02:33:51.402Z,99736.05
2019-03-17T02:36:21.858Z,99734.30
2019-03-17T02:38:52.799Z,99732.58
2019-03-17T02:41:23.406Z,99730.34
2019-03-17T02:43:53.830Z,99723.86
2019-03-17T02:46:24.312Z,99727.88
2019-03-17T02:48:54.740Z,99726.05
2019-03-17T02:51:25.186Z,99717.75
2019-03-17T02:53:55.619Z,99716.45
2019-03-17T02:56:26.136Z,99711.20
2019-03-17T02:58:56.649Z,99705.09
2019-03-17T03:01:27.344Z,99711.98
2019-03-17T03:03:57.752Z,99722.48
2019-03-17T03:06:28.397Z,99712.05
2019-03-17T03:08:58.868Z,99718.13
2019-03-17T03:11:30.396Z,99713.88
2019-03-17T03:14:00.892Z,99707.66
2019-03-17T03:16:31.503Z,99708.55
2019-03-17T03:19:03.455Z,99707.15
2019-03-17T03:21:33.931Z,99710.20
2019-03-17T03:24:05.422Z,99708.90
2019-03-17T03:26:35.993Z,99702.38
2019-03-17T03:29:06.420Z,99701.45
2019-03-17T03:31:36.873Z,99704.47
2019-03-17T03:34:07.426Z,99704.40
2019-03-17T03:36:37.976Z,99701.38
2019-03-17T03:39:08.469Z,99702.61
2019-03-17T03:41:38.949Z,99695.23
2019-03-17T03:44:09.440Z,99690.41
2019-03-17T03:46:39.884Z,99691.70
2019-03-17T03:49:10.315Z,99688.06
2019-03-17T03:51:40.843Z,99687.62
2019-03-17T03:54:11.255Z,99688.81
2019-03-17T03:56:42.118Z,99684.83
2019-03-17T03:59:12.526Z,99682.60
2019-03-17T04:01:43.076Z,99679.48
2019-03-17T04:04:13.713Z,99683.83
2019-03-17T04:06:44.243Z,99682.08
2019-03-17T04:09:14.667Z,99675.83
2019-03-17T04:11:46.017Z,99675.83
2019-03-17T04:14:16.475Z,99677.66
2019-03-17T04:16:46.939Z,99681.05
2019-03-17T04:19:17.343Z,99675.05
2019-03-17T04:21:47.804Z,99671.58
2019-03-17T04:24:18.305Z,99668.09
2019-03-17T04:26:48.751Z,99666.75
2019-03-17T04:29:19.214Z,99670.52
2019-03-17T04:31:49.764Z,99666.98
2019-03-17T04:34:21.268Z,99666.53
2019-03-17T04:36:51.793Z,99663.03
2019-03-17T04:39:22.297Z,99657.48
2019-03-17T04:41:52.751Z,99649.66
2019-03-17T04:44:23.152Z,99649.22
2019-03-17T04:46:53.822Z,99651.41
2019-03-17T04:49:24.456Z,99644.59
2019-03-17T04:51:54.865Z,99644.59
2019-03-17T04:54:25.306Z,99647.72
2019-03-17T04:56:55.754Z,99645.59
2019-03-17T04:59:26.182Z,99639.11
2019-03-17T05:01:56.695Z,99633.97
2019-03-17T05:04:27.115Z,99634.42
2019-03-17T05:06:57.573Z,99630.51
2019-03-17T05:09:28.059Z,99631.36
2019-03-17T05:11:59.594Z,99631.78
2019-03-17T05:14:30.085Z,99619.56
2019-03-17T05:17:00.611Z,99617.68
2019-03-17T05:19:31.033Z,99614.04
2019-03-17T05:22:01.644Z,99606.39
2019-03-17T05:24:32.061Z,99604.08
2019-03-17T05:27:02.504Z,99608.52
2019-03-17T05:29:32.933Z,99602.83
2019-03-17T05:32:03.460Z,99602.63
2019-03-17T05:34:33.962Z,99603.58
2019-03-17T05:37:06.430Z,99597.72
2019-03-17T05:39:36.551Z,99591.36
2019-03-17T05:42:07.098Z,99593.24
2019-03-17T05:44:37.620Z,99596.68
2019-03-17T05:47:08.229Z,99588.22
2019-03-17T05:49:40.052Z,99587.42
2019-03-17T05:52:10.796Z,99579.73
2019-03-17T05:54:41.325Z,99578.87
2019-03-17T05:57:11.788Z,99581.78
2019-03-17T05:59:42.303Z,99584.13
2019-03-17T06:02:12.842Z,99582.50
2019-03-17T06:04:43.236Z,99579.59
2019-03-17T06:07:18.762Z,99578.98
2019-03-17T06:09:45.908Z,99584.97
2019-03-17T06:12:16.449Z,99582.52
2019-03-17T06:14:46.887Z,99577.98
2019-03-17T06:17:17.413Z,99569.73
2019-03-17T06:19:47.992Z,99580.25
2019-03-17T06:22:18.581Z,99584.39
2019-03-17T06:24:49.383Z,99584.55
2019-03-17T06:27:19.940Z,99578.66
2019-03-17T06:29:50.376Z,99573.84
2019-03-17T06:32:20.825Z,99570.62
2019-03-17T06:34:51.260Z,99573.29
2019-03-17T06:37:30.496Z,99570.62
2019-03-17T06:39:54.008Z,99571.78
2019-03-17T06:42:24.480Z,99569.55
2019-03-17T06:44:54.923Z,99560.80
2019-03-17T06:47:25.384Z,99551.56
2019-03-17T06:49:55.893Z,99560.43
2019-03-17T06:52:26.451Z,99552.68
2019-03-17T06:54:57.960Z,99557.69
2019-03-17T06:57:28.617Z,99554.72
2019-03-17T06:59:59.133Z,99561.39
2019-03-17T07:02:43.080Z,99553.88
2019-03-17T07:05:19.024Z,99561.13
2019-03-17T07:07:49.860Z,99555.41
2019-03-17T07:10:20.306Z,99551.80
2019-03-17T07:12:50.954Z,99555.16
2019-03-17T07:15:21.466Z,99556.12
2019-03-17T07:17:52.021Z,99541.44
2019-03-17T07:20:23.372Z,99537.69
2019-03-17T07:22:53.973Z,99542.22
2019-03-17T07:25:24.408Z,99538.44
2019-03-17T07:27:54.864Z,99542.55
2019-03-17T07:30:25.364Z,99538.48
2019-03-17T07:32:55.833Z,99544.42
2019-03-17T07:35:26.266Z,99545.92
2019-03-17T07:37:57.352Z,99540.87
2019-03-17T07:40:27.844Z,99537.09
2019-03-17T07:42:59.999Z,99533.75
2019-03-17T07:45:30.428Z,99532.38
2019-03-17T07:48:00.905Z,99525.45
2019-03-17T07:50:31.330Z,99524.97
2019-03-17T07:53:01.951Z,99530.59
2019-03-17T07:55:32.373Z,99527.63
2019-03-17T07:58:02.897Z,99521.83
2019-03-17T08:00:33.329Z,99517.66
2019-03-17T08:03:03.878Z,99527.23
2019-03-17T08:05:34.378Z,99518.73
2019-03-17T08:08:09.633Z,99510.83
2019-03-17T08:10:36.984Z,99515.19
2019-03-17T08:13:07.616Z,99514.81
2019-03-17T08:15:38.118Z,99515.25
2019-03-17T08:18:08.586Z,99503.82
2019-03-17T08:20:39.025Z,99506.48
2019-03-17T08:23:09.642Z,99507.42
2019-03-17T08:25:40.072Z,99490.39
2019-03-17T08:28:10.533Z,99486.95
2019-03-17T08:30:52.649Z,99487.06
2019-03-17T08:33:13.190Z,99493.20
2019-03-17T08:35:43.775Z,99491.91
2019-03-17T08:38:21.857Z,99491.53
2019-03-17T08:40:46.388Z,99497.72
2019-03-17T08:43:16.940Z,99493.33
2019-03-17T08:45:47.365Z,99495.08
2019-03-17T08:48:17.889Z,99501.27
2019-03-17T08:50:48.396Z,99502.23
2019-03-17T08:53:19.023Z,99501.83
2019-03-17T08:55:49.526Z,99497.90
2019-03-17T08:58:19.985Z,99497.93
2019-03-17T09:00:50.490Z,99494.88
2019-03-17T09:03:21.070Z,99492.33
2019-03-17T09:05:51.512Z,99487.03
2019-03-17T09:08:33.900Z,99501.58
2019-03-17T09:10:54.201Z,99496.33
2019-03-17T09:13:24.788Z,99497.68
2019-03-17T09:15:55.299Z,99490.25
2019-03-17T09:18:27.148Z,99492.91
2019-03-17T09:20:57.781Z,99496.00
2019-03-17T09:23:28.258Z,99492.94
2019-03-17T09:25:58.772Z,99479.80
2019-03-17T09:28:29.224Z,99489.43
2019-03-17T09:30:59.723Z,99475.44
2019-03-17T09:33:30.339Z,99474.61
2019-03-17T09:36:00.798Z,99467.59
2019-03-17T09:38:31.414Z,99469.80
2019-03-17T09:41:01.839Z,99468.09
2019-03-17T09:43:32.302Z,99468.16
2019-03-17T09:46:02.740Z,99458.06
2019-03-17T09:48:33.390Z,99462.02
2019-03-17T09:51:03.929Z,99457.19
2019-03-17T09:53:34.450Z,99460.28
2019-03-17T09:56:04.882Z,99453.30
2019-03-17T09:58:35.869Z,99457.67
2019-03-17T10:01:06.870Z,99449.82
2019-03-17T10:03:37.430Z,99455.08
2019-03-17T10:06:07.944Z,99451.55
2019-03-17T10:08:38.825Z,99450.67
2019-03-17T10:11:10.711Z,99446.35
2019-03-17T10:13:41.568Z,99450.30
2019-03-17T10:16:11.983Z,99441.52
2019-03-17T10:18:42.452Z,99441.52
2019-03-17T10:21:12.970Z,99439.30
2019-03-17T10:23:43.528Z,99432.77
2019-03-17T10:26:13.959Z,99432.33
2019-03-17T10:28:44.669Z,99431.88
2019-03-17T10:31:15.108Z,99424.86
2019-03-17T10:33:45.840Z,99431.87
2019-03-17T10:36:16.550Z,99445.91
2019-03-17T10:38:47.012Z,99431.89
2019-03-17T10:41:17.613Z,99429.67
2019-03-17T10:43:48.095Z,99428.34
2019-03-17T10:46:18.587Z,99443.25
2019-03-17T10:48:49.031Z,99424.87
2019-03-17T10:51:19.478Z,99425.22
2019-03-17T10:53:49.947Z,99439.23
2019-03-17T10:56:20.695Z,99434.88
2019-03-17T10:58:53.653Z,99440.14
2019-03-17T11:01:25.010Z,99433.98
2019-03-17T11:03:55.578Z,99435.72
2019-03-17T11:06:26.073Z,99421.25
2019-03-17T11:08:56.734Z,99414.66
2019-03-17T11:11:27.807Z,99412.53
2019-03-17T11:13:59.190Z,99421.67
2019-03-17T11:16:29.623Z,99409.84
2019-03-17T11:19:00.369Z,99412.42
2019-03-17T11:21:30.855Z,99410.62
2019-03-17T11:24:01.345Z,99400.51
2019-03-17T11:26:31.781Z,99400.03
2019-03-17T11:29:02.411Z,99393.88
2019-03-17T11:31:32.936Z,99395.95
2019-03-17T11:34:03.395Z,99390.63
2019-03-17T11:36:33.830Z,99382.69
2019-03-17T11:39:06.982Z,99395.81
2019-03-17T11:41:37.495Z,99389.67
2019-03-17T11:44:07.943Z,99381.67
2019-03-17T11:46:42.030Z,99381.59
2019-03-17T11:49:13.119Z,99385.88
2019-03-17T11:51:43.553Z,99400.35
2019-03-17T11:54:14.005Z,99395.41
2019-03-17T11:56:44.465Z,99390.95
2019-03-17T11:59:15.175Z,99390.71
2019-03-17T12:01:45.599Z,99390.44
2019-03-17T12:04:16.067Z,99385.08
2019-03-17T12:06:46.586Z,99384.06
2019-03-17T12:09:28.445Z,99377.97
2019-03-17T12:11:49.504Z,99372.80
2019-03-17T12:14:20.125Z,99374.08
2019-03-17T12:16:50.562Z,99363.66
2019-03-17T12:19:21.019Z,99362.89
2019-03-17T12:21:51.447Z,99361.10
2019-03-17T12:24:22.057Z,99352.44
2019-03-17T12:26:52.503Z,99345.45
2019-03-17T12:29:23.149Z,99352.17
2019-03-17T12:31:53.597Z,99361.86
2019-03-17T12:34:28.606Z,99360.74
2019-03-17T12:36:56.204Z,99374.64
2019-03-17T12:39:26.669Z,99366.45
2019-03-17T12:41:57.117Z,99367.11
2019-03-17T12:44:27.592Z,99363.98
2019-03-17T12:46:58.177Z,99363.12
2019-03-17T12:52:08.702Z,99357.94
2019-03-17T12:54:39.206Z,99355.73
2019-03-17T12:57:09.562Z,99362.39
2019-03-17T12:59:39.989Z,99363.27
2019-03-17T13:02:10.811Z,99357.92
2019-03-17T13:04:41.332Z,99361.41
2019-03-17T13:07:11.814Z,99347.32
2019-03-17T13:09:42.250Z,99347.81
2019-03-17T13:12:12.790Z,99346.13
2019-03-17T13:14:43.224Z,99350.37
2019-03-17T13:17:13.693Z,99354.06
2019-03-17T13:19:44.144Z,99351.97
2019-03-17T13:22:14.990Z,99347.47
2019-03-17T13:24:45.529Z,99336.33
2019-03-17T13:27:16.004Z,99343.88
2019-03-17T13:29:46.458Z,99342.91
2019-03-17T13:32:16.941Z,99341.83
2019-03-17T13:34:47.459Z,99337.61
2019-03-17T13:37:17.998Z,99335.93
2019-03-17T13:39:48.462Z,99341.69
2019-03-17T13:42:18.942Z,99342.64
2019-03-17T13:45:21.267Z,99348.14
2019-03-17T13:47:55.072Z,99337.58
2019-03-17T13:50:25.521Z,99345.25
2019-03-17T13:52:55.952Z,99347.15
2019-03-17T13:55:26.365Z,99358.76
2019-03-17T13:58:05.422Z,99360.27
2019-03-17T14:00:35.915Z,99355.54
2019-03-17T14:03:06.385Z,99352.59
2019-03-17T14:05:36.869Z,99380.00
2019-03-17T14:08:07.338Z,99346.88
2019-03-17T14:10:41.322Z,99342.54
2019-03-17T14:13:10.148Z,99336.69
2019-03-17T14:15:40.566Z,99328.21
2019-03-17T14:18:11.031Z,99326.29
2019-03-17T14:20:41.452Z,99332.95
2019-03-17T14:23:11.988Z,99346.91
2019-03-17T14:25:42.471Z,99335.80
2019-03-17T14:28:12.999Z,99354.80
2019-03-17T14:30:43.407Z,99348.81
2019-03-17T14:33:13.938Z,99350.38
2019-03-17T14:35:44.417Z,99358.69
2019-03-17T14:38:16.222Z,99372.41
2019-03-17T14:40:53.412Z,99370.88
2019-03-17T14:43:18.866Z,99367.75
2019-03-17T14:45:49.302Z,99375.95
2019-03-17T14:48:20.016Z,99365.75
2019-03-17T14:50:50.491Z,99371.20
2019-03-17T14:53:21.028Z,99387.86
2019-03-17T14:55:51.522Z,99389.42
2019-03-17T14:58:21.980Z,99382.81
2019-03-17T15:00:53.542Z,99384.19
2019-03-17T15:03:24.192Z,99369.39
2019-03-17T15:05:54.714Z,99369.45
2019-03-17T15:08:25.167Z,99374.61
2019-03-17T15:11:05.274Z,99365.27
2019-03-17T15:13:27.999Z,99361.66
2019-03-17T15:16:02.991Z,99363.50
2019-03-17T15:18:30.637Z,99353.61
2019-03-17T15:21:11.320Z,99349.02
2019-03-17T15:23:44.409Z,99360.98
2019-03-17T15:26:14.895Z,99359.73
2019-03-17T15:28:51.456Z,99371.01
2019-03-17T15:31:21.867Z,99368.95
2019-03-17T15:33:52.330Z,99371.52
2019-03-17T15:36:22.749Z,99359.27
2019-03-17T15:38:53.355Z,99371.82
2019-03-17T15:41:23.768Z,99366.30
2019-03-17T15:43:54.313Z,99368.23
2019-03-17T15:46:24.734Z,99361.42
2019-03-17T15:48:58.711Z,99347.42
2019-03-17T15:51:29.197Z,99354.23
2019-03-17T15:54:01.167Z,99344.36
2019-03-17T15:56:32.865Z,99344.00
2019-03-17T15:59:03.378Z,99346.98
2019-03-17T16:01:33.870Z,99345.98
2019-03-17T16:04:11.681Z,99342.92
2019-03-17T16:06:42.558Z,99341.41
2019-03-17T16:09:13.171Z,99339.64
2019-03-17T16:11:43.584Z,99341.98
2019-03-17T16:14:14.227Z,99347.12
2019-03-17T16:16:44.653Z,99356.08
2019-03-17T16:19:15.131Z,99363.22
2019-03-17T16:21:45.544Z,99366.02
2019-03-17T16:24:16.183Z,99374.52
2019-03-17T16:26:46.592Z,99376.40
2019-03-17T16:29:17.043Z,99378.61
2019-03-17T16:31:47.468Z,99380.05
2019-03-17T16:34:18.008Z,99391.48
2019-03-17T16:36:48.414Z,99400.34
2019-03-17T16:39:20.487Z,99393.80
2019-03-17T16:41:50.936Z,99399.56
2019-03-17T16:44:21.488Z,99413.63
2019-03-17T16:46:51.972Z,99422.88
2019-03-17T16:49:22.594Z,99429.44
2019-03-17T16:51:53.090Z,99422.42
2019-03-17T16:54:23.631Z,99418.06
2019-03-17T16:56:54.128Z,99427.73
2019-03-17T16:59:24.659Z,99433.91
2019-03-17T17:01:55.227Z,99437.41
2019-03-17T17:04:26.758Z,99455.88
2019-03-17T17:06:57.276Z,99483.53
2019-03-17T17:09:28.058Z,99486.62
2019-03-17T17:11:58.685Z,99489.29
2019-03-17T17:14:29.307Z,99503.30
2019-03-17T17:16:59.716Z,99517.67
2019-03-17T17:19:30.177Z,99537.34
2019-03-17T17:22:00.591Z,99536.36
2019-03-17T17:24:31.222Z,99542.09
2019-03-17T17:27:01.648Z,99590.72
2019-03-17T17:29:33.192Z,99598.16
2019-03-17T17:32:03.613Z,99657.95
2019-03-17T17:34:34.137Z,99626.05
2019-03-17T17:37:04.633Z,99667.30
2019-03-17T17:39:35.215Z,99641.55
2019-03-17T17:42:09.941Z,99654.77
2019-03-17T17:44:37.849Z,99681.59
2019-03-17T17:47:08.391Z,99667.88
2019-03-17T17:49:38.866Z,99670.59
2019-03-17T17:52:09.256Z,99696.99
2019-03-17T17:54:39.714Z,99690.92
2019-03-17T17:57:10.203Z,99680.01
2019-03-17T17:59:40.729Z,99672.80
2019-03-17T18:02:11.235Z,99690.91
2019-03-17T18:04:41.945Z,99719.69
2019-03-17T18:07:12.413Z,99724.05
2019-03-17T18:09:42.954Z,99721.55
2019-03-17T18:12:20.911Z,99735.97
2019-03-17T18:14:45.628Z,99747.77
2019-03-17T18:17:16.408Z,99739.43
2019-03-17T18:19:47.003Z,99731.17
2019-03-17T18:22:17.510Z,99738.91
2019-03-17T18:24:48.035Z,99735.25
2019-03-17T18:27:18.474Z,99730.56
2019-03-17T18:29:48.952Z,99722.02
2019-03-17T18:32:19.360Z,99754.45
2019-03-17T18:34:50.699Z,99768.58
2019-03-17T18:37:21.452Z,99773.49
2019-03-17T18:39:51.869Z,99768.94
2019-03-17T18:42:32.592Z,99790.97
2019-03-17T18:44:54.694Z,99812.11
2019-03-17T18:47:25.236Z,99830.47
2019-03-17T18:49:55.838Z,99839.13
2019-03-17T18:52:26.398Z,99853.33
2019-03-17T18:54:56.966Z,99849.83
2019-03-17T18:57:27.473Z,99850.19
2019-03-17T19:00:27.474Z,99863.41
2019-03-17T19:02:51.445Z,99870.78
2019-03-17T19:05:22.152Z,99878.64
2019-03-17T19:07:52.740Z,99884.88
2019-03-17T19:10:34.444Z,99893.58
2019-03-17T19:13:04.975Z,99884.33
2019-03-17T19:15:36.248Z,99873.03
2019-03-17T19:18:06.820Z,99873.39
2019-03-17T19:20:37.414Z,99866.17
2019-03-17T19:23:08.115Z,99874.06
2019-03-17T19:25:38.744Z,99869.13
2019-03-17T19:28:09.241Z,99864.11
2019-03-17T19:30:41.432Z,99862.27
2019-03-17T19:33:14.964Z,99864.52
2019-03-17T19:35:45.558Z,99872.02
2019-03-17T19:38:18.024Z,99873.27
2019-03-17T19:40:48.310Z,99875.20
2019-03-17T19:43:18.815Z,99871.03
2019-03-17T19:45:49.453Z,99874.27
2019-03-17T19:48:26.020Z,99885.62
2019-03-17T19:50:56.520Z,99886.92
2019-03-17T19:53:27.153Z,99895.72
2019-03-17T19:55:57.793Z,99908.47
2019-03-17T19:58:28.230Z,99918.76
2019-03-17T20:00:58.854Z,99923.75
2019-03-17T20:03:29.330Z,99923.12
2019-03-17T20:06:02.594Z,99928.08
2019-03-17T20:08:32.890Z,99922.83
2019-03-17T20:11:03.422Z,99927.58
2019-03-17T20:13:33.915Z,99925.27
2019-03-17T20:16:04.770Z,99923.12
2019-03-17T20:18:35.362Z,99927.81
2019-03-17T20:21:05.940Z,99927.41
2019-03-17T20:23:36.522Z,99920.69
2019-03-17T20:26:06.975Z,99919.67
2019-03-17T20:28:37.458Z,99921.88
2019-03-17T20:31:07.913Z,99916.16
2019-03-17T20:33:38.344Z,99914.10
2019-03-17T20:36:08.794Z,99920.20
2019-03-17T20:38:40.988Z,99914.41
2019-03-17T20:41:11.588Z,99921.81
2019-03-17T20:43:42.087Z,99909.75
2019-03-17T20:46:12.536Z,99900.23
2019-03-17T20:48:42.976Z,99905.44
2019-03-17T20:51:13.545Z,99899.80
2019-03-17T20:53:44.032Z,99894.32
2019-03-17T20:56:14.557Z,99896.11
2019-03-17T20:58:44.967Z,99902.52
2019-03-17T21:01:15.416Z,99905.98
2019-03-17T21:03:45.845Z,99893.28
2019-03-17T21:06:16.259Z,99891.17
2019-03-17T21:08:46.813Z,99888.21
2019-03-17T21:11:17.219Z,99896.69
2019-03-17T21:13:47.773Z,99903.60
2019-03-17T21:16:18.220Z,99905.84
2019-03-17T21:18:48.891Z,99909.66
2019-03-17T21:21:19.309Z,99901.80
2019-03-17T21:23:49.832Z,99904.09
2019-03-17T21:26:20.285Z,99926.11
2019-03-17T21:28:50.807Z,99943.94
2019-03-17T21:31:21.307Z,99942.19
2019-03-17T21:33:51.835Z,99950.34
2019-03-17T21:36:22.325Z,99952.34
2019-03-17T21:38:52.857Z,99957.19
2019-03-17T21:41:23.320Z,99958.80
2019-03-17T21:43:59.465Z,99956.96
2019-03-17T21:46:25.917Z,99957.06
2019-03-17T21:49:20.257Z,99958.91
2019-03-17T21:51:50.940Z,99971.06
2019-03-17T21:54:21.397Z,99969.26
2019-03-17T21:56:51.827Z,99970.02
2019-03-17T21:59:22.357Z,99972.27
2019-03-17T22:01:52.845Z,99974.46
2019-03-17T22:04:23.392Z,99976.22
2019-03-17T22:06:53.968Z,99976.17
2019-03-17T22:09:24.841Z,99983.03
2019-03-17T22:11:55.282Z,99990.58
2019-03-17T22:14:25.796Z,99991.63
2019-03-17T22:16:56.280Z,99992.47
2019-03-17T22:19:26.823Z,100009.59
2019-03-17T22:21:57.330Z,100016.09
2019-03-17T22:24:40.856Z,100022.59
2019-03-17T22:27:15.852Z,100022.34
2019-03-17T22:29:46.402Z,100023.55
2019-03-17T22:32:16.858Z,100040.02
2019-03-17T22:34:47.421Z,100035.17
2019-03-17T22:37:17.875Z,100037.31
2019-03-17T22:39:48.432Z,100036.37
2019-03-17T22:42:18.862Z,100041.11
2019-03-17T22:44:49.413Z,100047.11
2019-03-17T22:47:19.929Z,100048.08
2019-03-17T22:49:50.490Z,100047.11
2019-03-17T22:52:24.193Z,100043.51
2019-03-17T22:54:54.727Z,100040.50
2019-03-17T22:57:25.159Z,100041.26
2019-03-17T22:59:55.609Z,100039.96
2019-03-17T23:02:32.309Z,100032.61
2019-03-17T23:05:03.341Z,100037.26
2019-03-17T23:07:34.051Z,100036.25
2019-03-17T23:10:06.002Z,100045.91
2019-03-17T23:12:36.715Z,100045.70
2019-03-17T23:15:09.472Z,100050.30
2019-03-17T23:17:40.182Z,100049.34
2019-03-17T23:20:13.173Z,100047.64
2019-03-17T23:22:43.876Z,100054.83
2019-03-17T23:25:15.604Z,100063.14
2019-03-17T23:27:46.322Z,100060.89
2019-03-17T23:30:19.422Z,100072.43
2019-03-17T23:32:50.107Z,100088.82
2019-03-17T23:35:20.849Z,100087.98
2019-03-17T23:37:51.775Z,100093.97
2019-03-17T23:40:25.631Z,100089.69
2019-03-17T23:42:56.360Z,100084.02
2019-03-17T23:45:29.811Z,100092.91
2019-03-17T23:48:00.524Z,100088.56
2019-03-17T23:50:31.293Z,100092.01
2019-03-17T23:53:02.009Z,100090.19
2019-03-17T23:55:32.750Z,100090.59
2019-03-17T23:58:03.463Z,100092.73
